createdAt,value
2022-10-18T00:04:08.499Z,58.28
2022-10-18T00:09:06.244Z,58.25
2022-10-18T00:14:05.756Z,57.94
2022-10-18T00:19:14.458Z,57.92
2022-10-18T00:24:15.211Z,58.18
2022-10-18T00:29:16.073Z,58.16
2022-10-18T00:34:16.797Z,58.52
2022-10-18T00:39:20.391Z,58.14
2022-10-18T00:44:57.516Z,58.16
2022-10-18T00:50:00.617Z,58.52
2022-10-18T00:55:02.877Z,58.40
2022-10-18T01:00:03.995Z,58.20
2022-10-18T01:05:00.934Z,58.16
2022-10-18T01:10:30.712Z,58.02
2022-10-18T01:15:43.970Z,58.58
2022-10-18T01:21:19.622Z,58.03
2022-10-18T01:26:34.448Z,58.31
2022-10-18T01:31:35.083Z,58.44
2022-10-18T01:36:35.782Z,58.32
2022-10-18T01:41:46.897Z,58.41
2022-10-18T01:46:45.949Z,58.31
2022-10-18T01:51:42.813Z,58.72
2022-10-18T01:56:47.588Z,58.56
2022-10-18T02:02:02.823Z,58.56
2022-10-18T02:07:07.382Z,58.80
2022-10-18T02:12:10.471Z,58.68
2022-10-18T02:17:12.040Z,58.69
2022-10-18T02:22:20.092Z,58.70
2022-10-18T02:27:17.236Z,58.90
2022-10-18T02:32:20.686Z,59.05
2022-10-18T02:37:18.161Z,58.85
2022-10-18T02:42:15.679Z,58.85
2022-10-18T02:47:20.420Z,58.69
2022-10-18T02:52:17.433Z,58.73
2022-10-18T02:57:19.566Z,58.92
2022-10-18T03:02:17.402Z,58.77
2022-10-18T03:07:21.170Z,58.85
2022-10-18T03:12:24.475Z,58.63
2022-10-18T03:17:25.225Z,58.84
2022-10-18T03:27:24.160Z,58.76
2022-10-18T03:32:30.281Z,58.70
2022-10-18T03:37:32.628Z,58.84
2022-10-18T03:42:32.323Z,58.42
2022-10-18T03:47:32.999Z,58.70
2022-10-18T03:52:30.322Z,58.46
2022-10-18T03:57:27.598Z,58.83
2022-10-18T04:02:25.207Z,59.03
2022-10-18T04:07:41.236Z,58.75
2022-10-18T04:12:38.157Z,58.91
2022-10-18T04:17:47.343Z,59.15
2022-10-18T04:23:11.222Z,58.58
2022-10-18T04:28:51.618Z,58.43
2022-10-18T04:34:27.132Z,58.67
2022-10-18T04:39:27.729Z,59.06
2022-10-18T04:44:25.048Z,58.89
2022-10-18T04:49:22.245Z,59.09
2022-10-18T04:54:22.866Z,59.05
2022-10-18T04:59:33.885Z,59.66
2022-10-18T05:09:54.514Z,59.48
2022-10-18T05:14:53.303Z,59.49
2022-10-18T05:20:10.910Z,59.14
2022-10-18T05:25:21.320Z,59.23
2022-10-18T05:30:28.593Z,59.17
2022-10-18T05:35:28.453Z,59.23
2022-10-18T05:40:29.343Z,59.34
2022-10-18T05:45:33.281Z,59.76
2022-10-18T05:51:03.714Z,60.12
2022-10-18T05:56:03.546Z,60.07
2022-10-18T06:01:06.320Z,60.17
2022-10-18T06:06:23.525Z,59.87
2022-10-18T06:12:31.394Z,59.80
2022-10-18T06:18:09.730Z,59.66
2022-10-18T06:23:44.139Z,59.34
2022-10-18T06:28:41.570Z,59.01
2022-10-18T06:33:39.876Z,58.05
2022-10-18T06:38:36.965Z,57.97
2022-10-18T06:43:40.238Z,57.11
2022-10-18T06:48:41.750Z,56.85
2022-10-18T06:53:44.581Z,56.52
2022-10-18T06:59:22.975Z,56.09
2022-10-18T07:04:22.333Z,55.73
2022-10-18T07:09:25.519Z,55.26
2022-10-18T07:14:26.915Z,54.71
2022-10-18T07:19:26.687Z,54.00
2022-10-18T07:24:23.782Z,53.68
2022-10-18T07:29:25.931Z,53.44
2022-10-18T07:34:28.362Z,52.74
2022-10-18T07:39:42.850Z,52.46
2022-10-18T07:45:13.832Z,51.78
2022-10-18T07:50:52.608Z,51.52
2022-10-18T07:56:27.475Z,51.33
2022-10-18T08:01:27.724Z,51.07
2022-10-18T08:06:24.961Z,50.71
2022-10-18T08:11:26.065Z,50.55
2022-10-18T08:16:24.678Z,50.43
2022-10-18T08:21:21.772Z,50.25
2022-10-18T08:26:51.714Z,49.96
2022-10-18T08:32:11.889Z,49.90
2022-10-18T08:37:56.752Z,47.51
2022-10-18T08:43:03.421Z,44.22
2022-10-18T08:48:01.819Z,40.49
2022-10-18T08:53:06.270Z,37.77
2022-10-18T08:59:03.443Z,35.23
2022-10-18T09:04:35.011Z,32.36
2022-10-18T09:09:58.425Z,31.79
2022-10-18T09:15:17.709Z,31.21
2022-10-18T09:20:59.395Z,30.13
2022-10-18T09:26:40.281Z,29.98
2022-10-18T09:31:50.088Z,29.04
2022-10-18T09:36:51.175Z,27.45
2022-10-18T09:42:12.095Z,27.86
2022-10-18T09:47:17.145Z,28.59
2022-10-18T09:52:19.059Z,28.45
2022-10-18T09:57:48.452Z,27.66
2022-10-18T10:03:07.130Z,27.51
2022-10-18T10:58:33.334Z,33.99
2022-10-18T11:38:33.231Z,34.38
2022-10-18T12:13:28.039Z,35.21
2022-10-18T12:33:33.476Z,35.65
2022-10-18T13:13:57.525Z,33.22
2022-10-18T13:39:47.333Z,32.40
2022-10-18T15:04:39.599Z,35.38
2022-10-18T15:16:36.522Z,36.16
2022-10-18T17:21:15.638Z,49.17
2022-10-18T20:12:02.591Z,52.95
2022-10-18T20:30:41.138Z,53.66
2022-10-18T20:37:03.703Z,53.72
2022-10-18T20:56:11.277Z,54.19
2022-10-18T21:03:02.473Z,54.19
2022-10-18T21:22:04.509Z,54.96
2022-10-18T21:28:00.906Z,54.94
2022-10-18T21:33:59.788Z,55.19
2022-10-18T21:47:41.377Z,55.45
2022-10-18T21:53:02.323Z,55.56
2022-10-18T21:59:48.178Z,55.69
2022-10-18T22:05:37.770Z,55.57
2022-10-18T22:12:22.265Z,56.11
2022-10-18T22:17:58.406Z,55.97
2022-10-18T22:28:33.464Z,56.01
2022-10-18T22:33:47.072Z,56.29
2022-10-18T22:39:08.210Z,56.26
2022-10-18T22:44:32.583Z,56.35
2022-10-18T22:50:06.506Z,56.42
2022-10-18T22:55:51.297Z,56.33
2022-10-18T23:07:53.503Z,56.71
2022-10-18T23:14:13.146Z,56.66
2022-10-18T23:20:14.372Z,56.96
2022-10-18T23:25:36.227Z,56.69
2022-10-18T23:37:12.929Z,57.11
2022-10-18T23:42:43.844Z,57.08
2022-10-18T23:53:45.184Z,56.85
